Stanley, NC (28164)

1:13 AM EDT on September 05, 2015 (GMT -0400)
Abernathy Hardware | | Change Station
CLOSE
Current Station
Personal Weather Station
Location: Stanley, NC
Elevation: 825 ft
Nearby Weather Stations

Elev 825 ft 35.35 °N, 81.09 °W | Updated 4 seconds ago

Partly Cloudy
Partly Cloudy
73.4 °F
Feels Like 74 °F
N
3.1
Wind Variable Wind from NW
Gusts 3.1 mph

Today
High -- | Low -- °F
--% Chance of Precip.
Yesterday
High -- | Low -- °F
Precip. -- in
6:59 AM 7:46 PM
Waning Gibbous, 52% visible
Pressure 30.13 in
Visibility 10.0 miles
Clouds Mostly Cloudy 5500 ft
Heat Index 74 °F
Dew Point 14 °F
Humidity 10%
Rainfall 0.00 in
Snow Depth Not available.
UV 0.0 out of 12
Pollen 9.50 out of 12
Air Quality Not available.
Flu Activity Not available.
METAR KIPJ 050455Z AUTO 00000KT 10SM BKN055 22/17 A3013 RMK AO2 T02180170
Pressure 30.13 in
Visibility 10.0 miles
Clouds Mostly Cloudy 5500 ft
Heat Index 74 °F
Dew Point 14 °F
Humidity 10%
Rainfall 0.00 in
Snow Depth Not available.
UV 0.0 out of 12
Pollen 9.50 out of 12
Air Quality Not available.
Flu Activity Not available.
METAR KIPJ 050455Z AUTO 00000KT 10SM BKN055 22/17 A3013 RMK AO2 T02180170

10-Day Weather Forecast

×

Almanac

Astronomy

Sep. 05, 2015 Rise Set
Actual Time
Civil Twilight
Nautical Twilight
Astronomical Twilight
Moon
Length of Visible Light
Length of Day
Tomorrow will be .
, % of the Moon is Illuminated

Today's Extremes

State Highs State Lows

Community

WunderPhotos

Upload Photos

1,852,426 photos uploaded!

WunderBlogs® & News

Nearby

Air Quality

  Air Quality AQ Index Pollutant
Not available.

Snow Depth

Station Depth Elevation

Earthquake Activity

City Distance Mag. Time & Date
Minimum magnitude displayed is 2.5.

Coastal Water Temperatures

Place Temperature

Stations

Nearby Weather Stations

Station Location Temp. Windchill Dew Point Humidity Wind Precip. Elev Updated Type